createdAt,value
2018-03-04T00:00:45.511Z,-0.44
2018-03-04T00:01:49.153Z,-0.41
2018-03-04T00:02:52.478Z,-0.40
2018-03-04T00:03:55.821Z,-0.36
2018-03-04T00:04:59.230Z,-0.29
2018-03-04T00:06:02.512Z,-0.40
2018-03-04T00:07:05.904Z,-0.38
2018-03-04T00:08:09.572Z,-0.44
2018-03-04T00:09:12.910Z,-0.42
2018-03-04T00:10:16.350Z,-0.39
2018-03-04T00:11:19.630Z,-0.40
2018-03-04T00:12:22.990Z,-0.43
2018-03-04T00:13:26.328Z,-0.43
2018-03-04T00:14:29.877Z,-0.47
2018-03-04T00:15:33.243Z,-0.41
2018-03-04T00:16:36.676Z,-0.38
2018-03-04T00:17:40.988Z,-0.36
2018-03-04T00:18:44.460Z,-0.33
2018-03-04T00:19:47.916Z,-0.37
2018-03-04T00:20:51.436Z,-0.39
2018-03-04T00:21:54.817Z,-0.38
2018-03-04T00:22:58.552Z,-0.42
2018-03-04T00:24:02.059Z,-0.38
2018-03-04T00:25:05.436Z,-0.42
2018-03-04T00:26:09.131Z,-0.35
2018-03-04T00:27:12.614Z,-0.34
2018-03-04T00:28:16.017Z,-0.36
2018-03-04T00:29:19.490Z,-0.33
2018-03-04T00:30:22.972Z,-0.37
2018-03-04T00:31:26.680Z,-0.43
2018-03-04T00:32:30.245Z,-0.40
2018-03-04T00:33:33.762Z,-0.38
2018-03-04T00:34:37.158Z,-0.35
2018-03-04T00:35:40.693Z,-0.35
2018-03-04T00:36:44.093Z,-0.37
2018-03-04T00:37:47.884Z,-0.31
2018-03-04T00:38:51.337Z,-0.34
2018-03-04T00:39:54.776Z,-0.35
2018-03-04T00:40:58.351Z,-0.27
2018-03-04T00:42:01.932Z,-0.30
2018-03-04T00:43:05.444Z,-0.32
2018-03-04T00:44:08.953Z,-0.27
2018-03-04T00:45:12.489Z,-0.26
2018-03-04T00:46:15.929Z,-0.27
2018-03-04T00:47:19.416Z,-0.24
2018-03-04T00:48:23.024Z,-0.20
2018-03-04T00:49:26.783Z,-0.22
2018-03-04T00:50:30.223Z,-0.26
2018-03-04T00:51:33.678Z,-0.28
2018-03-04T00:52:37.106Z,-0.25
2018-03-04T00:53:40.604Z,-0.22
2018-03-04T00:54:44.090Z,-0.22
2018-03-04T00:55:47.838Z,-0.22
2018-03-04T00:56:51.244Z,-0.19
2018-03-04T00:57:54.704Z,-0.20
2018-03-04T00:58:58.095Z,-0.28
2018-03-04T01:00:01.520Z,-0.32
2018-03-04T01:01:05.992Z,-0.32
2018-03-04T01:02:09.785Z,-0.31
2018-03-04T01:03:13.271Z,-0.33
2018-03-04T01:04:16.585Z,-0.35
2018-03-04T01:05:20.001Z,-0.24
2018-03-04T01:06:23.531Z,-0.29
2018-03-04T01:07:27.241Z,-0.39
2018-03-04T01:08:31.128Z,-0.43
2018-03-04T01:09:34.822Z,-0.39
2018-03-04T01:10:38.452Z,-0.38
2018-03-04T01:11:42.105Z,-0.39
2018-03-04T01:12:45.744Z,-0.42
2018-03-04T01:13:49.272Z,-0.43
2018-03-04T01:14:53.014Z,-0.42
2018-03-04T01:15:56.713Z,-0.42
2018-03-04T01:17:00.246Z,-0.43
2018-03-04T01:18:03.848Z,-0.46
2018-03-04T01:19:07.343Z,-0.46
2018-03-04T01:20:10.882Z,-0.48
2018-03-04T01:21:14.288Z,-0.46
2018-03-04T01:22:17.640Z,-0.44
2018-03-04T01:23:21.169Z,-0.47
2018-03-04T01:24:25.325Z,-0.45
2018-03-04T01:25:28.764Z,-0.48
2018-03-04T01:26:32.726Z,-0.46
2018-03-04T01:27:36.211Z,-0.49
2018-03-04T01:28:40.001Z,-0.51
2018-03-04T01:29:43.502Z,-0.53
2018-03-04T01:30:47.263Z,-0.50
2018-03-04T01:31:50.668Z,-0.55
2018-03-04T01:32:54.515Z,-0.56
2018-03-04T01:33:58.295Z,-0.52
2018-03-04T01:35:01.820Z,-0.53
2018-03-04T01:36:05.523Z,-0.61
2018-03-04T01:37:09.570Z,-0.65
2018-03-04T01:38:13.212Z,-0.60
2018-03-04T01:39:17.014Z,-0.62
2018-03-04T01:40:21.262Z,-0.64
2018-03-04T01:41:24.601Z,-0.69
2018-03-04T01:42:28.163Z,-0.68
2018-03-04T01:43:31.802Z,-0.70
2018-03-04T01:44:35.445Z,-0.67
2018-03-04T01:45:39.300Z,-0.68
2018-03-04T01:46:42.851Z,-0.66
2018-03-04T01:47:46.352Z,-0.76
2018-03-04T01:48:49.935Z,-0.77
2018-03-04T01:49:53.515Z,-0.73
2018-03-04T01:50:57.006Z,-0.75
2018-03-04T01:52:00.700Z,-0.75
2018-03-04T01:53:04.184Z,-0.72
2018-03-04T01:54:07.708Z,-0.75
2018-03-04T01:55:11.213Z,-0.79
2018-03-04T01:56:14.828Z,-0.81
2018-03-04T01:57:18.469Z,-0.78
2018-03-04T01:58:22.292Z,-0.75
2018-03-04T01:59:25.995Z,-0.80
2018-03-04T02:00:29.589Z,-0.77
2018-03-04T02:01:33.183Z,-0.73
2018-03-04T02:02:36.796Z,-0.75
2018-03-04T02:03:40.291Z,-0.79
2018-03-04T02:04:44.239Z,-0.77
2018-03-04T02:05:47.902Z,-0.75
2018-03-04T02:06:51.606Z,-0.76
2018-03-04T02:07:55.389Z,-0.73
2018-03-04T02:08:59.044Z,-0.71
2018-03-04T02:10:02.735Z,-0.75
2018-03-04T02:11:06.851Z,-0.78
2018-03-04T02:12:10.346Z,-0.77
2018-03-04T02:13:13.910Z,-0.78
2018-03-04T02:14:17.714Z,-0.76
2018-03-04T02:15:21.586Z,-0.75
2018-03-04T02:16:25.436Z,-0.77
2018-03-04T02:17:29.534Z,-0.78
2018-03-04T02:18:33.260Z,-0.74
2018-03-04T02:19:37.037Z,-0.80
2018-03-04T02:20:40.722Z,-0.77
2018-03-04T02:21:44.400Z,-0.77
2018-03-04T02:22:47.813Z,-0.74
2018-03-04T02:23:52.012Z,-0.75
2018-03-04T02:24:55.718Z,-0.72
2018-03-04T02:25:59.458Z,-0.73
2018-03-04T02:27:03.076Z,-0.72
2018-03-04T02:28:07.045Z,-0.75
2018-03-04T02:29:10.605Z,-0.71
2018-03-04T02:30:14.781Z,-0.74
2018-03-04T02:31:18.287Z,-0.76
2018-03-04T02:32:22.031Z,-0.73
2018-03-04T02:33:25.469Z,-0.70
2018-03-04T02:34:28.915Z,-0.69
2018-03-04T02:35:32.557Z,-0.69
2018-03-04T02:36:36.497Z,-0.67
2018-03-04T02:37:40.347Z,-0.68
2018-03-04T02:38:44.081Z,-0.69
2018-03-04T02:39:47.527Z,-0.64
2018-03-04T02:40:51.331Z,-0.63
2018-03-04T02:41:55.253Z,-0.63
2018-03-04T02:42:59.118Z,-0.60
2018-03-04T02:44:02.826Z,-0.60
2018-03-04T02:45:06.441Z,-0.59
2018-03-04T02:46:09.900Z,-0.56
2018-03-04T02:47:13.735Z,-0.59
2018-03-04T02:48:17.357Z,-0.58
2018-03-04T02:49:21.289Z,-0.56
2018-03-04T02:50:25.533Z,-0.57
2018-03-04T02:51:29.151Z,-0.60
2018-03-04T02:52:32.918Z,-0.57
2018-03-04T02:53:36.429Z,-0.55
2018-03-04T02:54:40.346Z,-0.57
2018-03-04T02:55:44.520Z,-0.58
2018-03-04T02:56:48.105Z,-0.55
2018-03-04T02:57:51.562Z,-0.50
2018-03-04T02:59:02.117Z,-0.51
2018-03-04T03:00:05.693Z,-0.55
2018-03-04T03:01:09.347Z,-0.52
2018-03-04T03:02:13.218Z,-0.57
2018-03-04T03:03:16.780Z,-0.53
2018-03-04T03:04:20.353Z,-0.47
2018-03-04T03:05:23.952Z,-0.49
2018-03-04T03:06:27.852Z,-0.51
2018-03-04T03:07:31.637Z,-0.53
2018-03-04T03:08:35.611Z,-0.47
2018-03-04T03:09:39.145Z,-0.49
2018-03-04T03:10:42.767Z,-0.57
2018-03-04T03:11:46.324Z,-0.53
2018-03-04T03:12:50.243Z,-0.52
2018-03-04T03:13:53.769Z,-0.61
2018-03-04T03:14:57.612Z,-0.63
2018-03-04T03:16:01.173Z,-0.64
2018-03-04T03:17:06.067Z,-0.67
2018-03-04T03:18:09.980Z,-0.68
2018-03-04T03:19:13.497Z,-0.67
2018-03-04T03:20:16.942Z,-0.61
2018-03-04T03:21:20.669Z,-0.59
2018-03-04T03:22:24.130Z,-0.62
2018-03-04T03:23:27.723Z,-0.61
2018-03-04T03:24:31.329Z,-0.58
2018-03-04T03:25:34.728Z,-0.61
2018-03-04T03:26:38.400Z,-0.58
2018-03-04T03:27:42.362Z,-0.59
2018-03-04T03:28:46.074Z,-0.62
2018-03-04T03:29:49.724Z,-0.57
2018-03-04T03:30:53.868Z,-0.59
2018-03-04T03:31:57.909Z,-0.57
2018-03-04T03:33:01.585Z,-0.57
2018-03-04T03:34:05.859Z,-0.52
2018-03-04T03:35:09.268Z,-0.51
2018-03-04T03:36:12.931Z,-0.56
2018-03-04T03:37:17.282Z,-0.55
2018-03-04T03:38:21.108Z,-0.54
2018-03-04T03:39:24.377Z,-0.52
2018-03-04T03:40:28.122Z,-0.48
2018-03-04T03:41:31.650Z,-0.54
2018-03-04T03:42:35.329Z,-0.55
2018-03-04T03:43:38.639Z,-0.55
2018-03-04T03:44:42.059Z,-0.55
2018-03-04T03:45:45.438Z,-0.52
2018-03-04T03:46:48.830Z,-0.52
2018-03-04T03:47:52.347Z,-0.49
2018-03-04T03:48:55.562Z,-0.51
2018-03-04T03:49:58.932Z,-0.49
2018-03-04T03:51:02.375Z,-0.49
2018-03-04T03:52:05.697Z,-0.51
2018-03-04T03:53:08.944Z,-0.52
2018-03-04T03:54:12.276Z,-0.49
2018-03-04T03:55:15.494Z,-0.45
2018-03-04T03:56:19.005Z,-0.46
2018-03-04T03:57:22.852Z,-0.46
2018-03-04T03:58:26.311Z,-0.44
2018-03-04T03:59:29.614Z,-0.41
2018-03-04T04:00:33.071Z,-0.39
2018-03-04T04:01:36.842Z,-0.40
2018-03-04T04:02:40.274Z,-0.42
2018-03-04T04:03:44.178Z,-0.40
2018-03-04T04:04:47.542Z,-0.36
2018-03-04T04:05:50.971Z,-0.36
2018-03-04T04:06:54.365Z,-0.34
2018-03-04T04:07:57.409Z,-0.35
2018-03-04T04:09:00.685Z,-0.34
2018-03-04T04:10:04.181Z,-0.32
2018-03-04T04:11:07.435Z,-0.29
2018-03-04T04:12:10.889Z,-0.27
2018-03-04T04:13:14.370Z,-0.29
2018-03-04T04:14:17.589Z,-0.26
2018-03-04T04:15:20.684Z,-0.22
2018-03-04T04:16:24.533Z,-0.20
2018-03-04T04:17:28.067Z,-0.18
2018-03-04T04:18:31.550Z,-0.21
2018-03-04T04:19:35.254Z,-0.16
2018-03-04T04:20:38.397Z,-0.13
2018-03-04T04:21:41.492Z,-0.09
2018-03-04T04:22:45.517Z,-0.08
2018-03-04T04:23:48.743Z,-0.06
2018-03-04T04:24:51.998Z,-0.06
2018-03-04T04:25:55.291Z,-0.09
2018-03-04T04:26:58.754Z,-0.07
2018-03-04T04:28:02.254Z,-0.04
2018-03-04T04:29:06.174Z,-0.01
2018-03-04T04:30:09.444Z,0.00
2018-03-04T04:31:12.710Z,0.01
2018-03-04T04:32:16.269Z,0.02
2018-03-04T04:33:19.723Z,0.00
2018-03-04T04:34:23.015Z,-0.02
2018-03-04T04:35:26.445Z,0.00
2018-03-04T04:36:29.607Z,0.00
2018-03-04T04:37:32.779Z,-0.08
2018-03-04T04:38:36.221Z,-0.11
2018-03-04T04:39:39.622Z,-0.11
2018-03-04T04:40:42.913Z,-0.09
2018-03-04T04:41:46.298Z,-0.11
2018-03-04T04:42:55.278Z,-0.07
2018-03-04T04:43:58.720Z,-0.06
2018-03-04T04:45:01.950Z,-0.12
2018-03-04T04:46:05.137Z,-0.09
2018-03-04T04:47:08.398Z,-0.06
2018-03-04T04:48:12.194Z,-0.06
2018-03-04T04:49:15.474Z,-0.07
2018-03-04T04:50:18.651Z,-0.08
2018-03-04T04:51:22.364Z,-0.10
2018-03-04T04:52:25.657Z,-0.08
2018-03-04T04:53:28.843Z,-0.04
2018-03-04T04:54:32.316Z,-0.03
2018-03-04T04:56:49.289Z,0.05
2018-03-04T04:57:52.401Z,0.01
2018-03-04T04:58:55.478Z,-0.05
2018-03-04T04:59:58.507Z,-0.10
2018-03-04T05:01:02.161Z,-0.07
2018-03-04T05:02:05.454Z,-0.11
2018-03-04T05:03:08.867Z,-0.10
2018-03-04T05:04:11.869Z,-0.10
2018-03-04T05:05:15.069Z,-0.14
2018-03-04T05:06:18.128Z,-0.19
2018-03-04T05:07:21.527Z,-0.22
2018-03-04T05:08:25.020Z,-0.23
2018-03-04T05:09:28.290Z,-0.21
2018-03-04T05:10:31.498Z,-0.23
2018-03-04T05:11:34.827Z,-0.25
2018-03-04T05:12:38.116Z,-0.21
2018-03-04T05:13:41.552Z,-0.19
2018-03-04T05:14:44.902Z,-0.18
2018-03-04T05:15:48.202Z,-0.24
2018-03-04T05:16:51.451Z,-0.24
2018-03-04T05:17:54.951Z,-0.26
2018-03-04T05:18:58.444Z,-0.29
2018-03-04T05:20:01.994Z,-0.26
2018-03-04T05:21:05.122Z,-0.25
2018-03-04T05:22:08.195Z,-0.24
2018-03-04T05:23:11.622Z,-0.26
2018-03-04T05:24:14.971Z,-0.28
2018-03-04T05:25:18.379Z,-0.26
2018-03-04T05:26:22.107Z,-0.24
2018-03-04T05:27:25.254Z,-0.21
2018-03-04T05:28:29.501Z,-0.27
2018-03-04T05:29:32.671Z,-0.28
2018-03-04T05:30:35.787Z,-0.32
2018-03-04T05:31:39.125Z,-0.31
2018-03-04T05:32:42.541Z,-0.29
2018-03-04T05:33:45.553Z,-0.30
2018-03-04T05:34:48.807Z,-0.32
2018-03-04T05:35:52.219Z,-0.30
2018-03-04T05:36:55.383Z,-0.31
2018-03-04T05:37:58.787Z,-0.27
2018-03-04T05:39:02.542Z,-0.25
2018-03-04T05:40:05.785Z,-0.27
2018-03-04T05:41:09.012Z,-0.30
2018-03-04T05:42:12.080Z,-0.32
2018-03-04T05:43:15.267Z,-0.31
2018-03-04T05:44:18.418Z,-0.24
2018-03-04T05:45:21.867Z,-0.22
2018-03-04T05:46:25.158Z,-0.24
2018-03-04T05:47:28.407Z,-0.26
2018-03-04T05:48:31.819Z,-0.28
2018-03-04T05:49:35.004Z,-0.23
2018-03-04T05:50:38.248Z,-0.23
2018-03-04T05:51:42.116Z,-0.28
2018-03-04T05:52:45.476Z,-0.27
2018-03-04T05:53:48.913Z,-0.30
2018-03-04T05:54:52.323Z,-0.31
2018-03-04T05:55:55.660Z,-0.31
2018-03-04T05:56:59.103Z,-0.30
2018-03-04T05:58:02.838Z,-0.31
2018-03-04T05:59:06.348Z,-0.34
2018-03-04T06:00:09.654Z,-0.32
2018-03-04T06:01:13.308Z,-0.35
2018-03-04T06:02:16.518Z,-0.34
2018-03-04T06:03:20.008Z,-0.33
2018-03-04T06:04:23.768Z,-0.35
2018-03-04T06:05:27.353Z,-0.35
2018-03-04T06:06:30.846Z,-0.36
2018-03-04T06:07:34.417Z,-0.32
2018-03-04T06:08:38.270Z,-0.27
2018-03-04T06:09:41.636Z,-0.30
2018-03-04T06:10:45.059Z,-0.28
2018-03-04T06:11:48.341Z,-0.28
2018-03-04T06:12:51.825Z,-0.29
2018-03-04T06:13:55.546Z,-0.28
2018-03-04T06:14:59.208Z,-0.29
2018-03-04T06:16:03.031Z,-0.30
2018-03-04T06:23:15.776Z,-0.31
2018-03-04T06:24:19.293Z,-0.33
2018-03-04T06:25:22.834Z,-0.31
2018-03-04T06:26:26.371Z,-0.36
2018-03-04T06:27:29.971Z,-0.32
2018-03-04T06:28:33.420Z,-0.28
2018-03-04T06:29:37.529Z,-0.31
2018-03-04T06:30:41.228Z,-0.32
2018-03-04T06:31:45.562Z,-0.33
2018-03-04T06:32:49.336Z,-0.29
2018-03-04T06:33:52.935Z,-0.29
2018-03-04T06:34:56.360Z,-0.30
2018-03-04T06:36:00.242Z,-0.29
2018-03-04T06:37:03.835Z,-0.32
2018-03-04T06:38:07.672Z,-0.27
2018-03-04T06:39:11.529Z,-0.29
2018-03-04T06:40:15.134Z,-0.26
2018-03-04T06:41:18.717Z,-0.26
2018-03-04T06:42:22.788Z,-0.22
2018-03-04T06:43:26.576Z,-0.22
2018-03-04T06:44:30.184Z,-0.23
2018-03-04T06:45:33.716Z,-0.24
2018-03-04T06:46:37.466Z,-0.19
2018-03-04T06:47:41.197Z,-0.15
2018-03-04T06:48:44.949Z,-0.13
2018-03-04T06:49:48.558Z,-0.16
2018-03-04T06:50:52.203Z,-0.16
2018-03-04T06:51:55.745Z,-0.15
2018-03-04T06:52:59.640Z,-0.13
2018-03-04T06:54:03.118Z,-0.10
2018-03-04T06:55:07.215Z,-0.07
2018-03-04T06:56:11.238Z,-0.03
2018-03-04T06:57:14.934Z,-0.05
2018-03-04T06:58:18.519Z,-0.03
2018-03-04T06:59:22.123Z,0.00
2018-03-04T07:00:25.653Z,0.01
2018-03-04T07:01:29.556Z,-0.07
2018-03-04T07:02:33.230Z,-0.03
2018-03-04T07:03:36.813Z,-0.01
2018-03-04T07:04:40.364Z,0.00
2018-03-04T07:05:44.065Z,0.05
2018-03-04T07:06:47.751Z,0.07
2018-03-04T07:07:51.447Z,0.12
2018-03-04T07:08:55.362Z,0.13
2018-03-04T07:09:58.911Z,0.11
2018-03-04T07:11:02.500Z,0.06
2018-03-04T07:12:06.422Z,0.05
2018-03-04T07:13:10.143Z,0.03
2018-03-04T07:14:14.354Z,0.06
2018-03-04T07:15:18.206Z,0.07
2018-03-04T07:16:21.926Z,0.04
2018-03-04T07:17:25.555Z,0.01
2018-03-04T07:18:29.247Z,-0.04
2018-03-04T07:19:32.799Z,-0.05
2018-03-04T07:20:36.861Z,-0.01
2018-03-04T07:21:40.479Z,0.04
2018-03-04T07:22:44.251Z,0.09
2018-03-04T07:23:47.930Z,0.05
2018-03-04T07:24:51.345Z,0.00
2018-03-04T07:25:54.842Z,-0.06
2018-03-04T07:26:58.579Z,-0.05
2018-03-04T07:28:02.096Z,-0.06
2018-03-04T07:29:05.822Z,-0.03
2018-03-04T07:30:09.531Z,0.03
2018-03-04T07:31:13.192Z,0.04
2018-03-04T07:32:16.654Z,0.07
2018-03-04T07:33:20.582Z,0.06
2018-03-04T07:34:24.408Z,0.05
2018-03-04T07:35:28.222Z,0.09
2018-03-04T07:36:31.740Z,0.08
2018-03-04T07:37:35.243Z,0.12
2018-03-04T07:38:38.649Z,0.20
2018-03-04T07:39:42.557Z,0.22
2018-03-04T07:40:46.133Z,0.23
2018-03-04T07:41:49.534Z,0.26
2018-03-04T07:42:53.048Z,0.28
2018-03-04T07:43:56.547Z,0.30
2018-03-04T07:45:00.103Z,0.31
2018-03-04T07:46:03.992Z,0.37
2018-03-04T07:47:07.484Z,0.43
2018-03-04T07:48:10.960Z,0.41
2018-03-04T07:49:14.558Z,0.40
2018-03-04T07:50:18.078Z,0.58
2018-03-04T07:51:21.534Z,0.86
2018-03-04T07:52:25.325Z,0.71
2018-03-04T07:53:28.732Z,0.60
2018-03-04T07:54:32.573Z,0.59
2018-03-04T07:55:36.005Z,0.56
2018-03-04T07:56:39.401Z,0.58
2018-03-04T07:57:42.907Z,0.58
2018-03-04T07:58:46.708Z,0.51
2018-03-04T07:59:50.160Z,0.58
2018-03-04T08:00:53.642Z,0.85
2018-03-04T08:01:57.122Z,0.70
2018-03-04T08:03:00.632Z,0.69
2018-03-04T08:04:04.002Z,0.66
2018-03-04T08:05:07.609Z,0.64
2018-03-04T08:06:11.165Z,0.64
2018-03-04T08:07:14.378Z,0.69
2018-03-04T08:08:17.661Z,0.73
2018-03-04T08:09:20.959Z,0.80
2018-03-04T08:10:24.438Z,1.06
2018-03-04T08:11:28.387Z,0.96
2018-03-04T08:12:31.823Z,0.90
2018-03-04T08:13:35.206Z,0.91
2018-03-04T08:14:38.576Z,0.93
2018-03-04T08:15:42.184Z,0.98
2018-03-04T08:16:45.552Z,1.06
2018-03-04T08:17:49.477Z,1.10
2018-03-04T08:18:52.939Z,1.17
2018-03-04T08:19:56.418Z,1.14
2018-03-04T08:20:59.790Z,1.12
2018-03-04T08:22:03.217Z,1.15
2018-03-04T08:23:06.640Z,1.22
2018-03-04T08:24:10.083Z,1.22
2018-03-04T08:25:13.546Z,1.28
2018-03-04T08:26:17.009Z,1.36
2018-03-04T08:27:20.463Z,1.44
2018-03-04T08:28:23.948Z,1.44
2018-03-04T08:29:27.245Z,1.43
2018-03-04T08:30:31.033Z,1.31
2018-03-04T08:31:34.410Z,1.21
2018-03-04T08:32:37.862Z,1.17
2018-03-04T08:33:41.190Z,1.14
2018-03-04T08:34:44.477Z,1.11
2018-03-04T08:35:47.780Z,1.12
2018-03-04T08:36:51.331Z,1.17
2018-03-04T08:37:54.534Z,1.24
2018-03-04T08:38:57.785Z,1.33
2018-03-04T08:40:00.983Z,1.29
2018-03-04T08:41:04.291Z,1.30
2018-03-04T08:42:07.612Z,1.24
2018-03-04T08:43:11.291Z,1.23
2018-03-04T08:44:14.520Z,1.25
2018-03-04T08:45:17.794Z,1.21
2018-03-04T08:46:21.112Z,1.15
2018-03-04T08:47:24.892Z,1.21
2018-03-04T08:48:28.296Z,1.14
2018-03-04T08:49:31.630Z,1.17
2018-03-04T08:50:34.893Z,1.16
2018-03-04T08:51:38.135Z,1.22
2018-03-04T08:52:41.655Z,1.27
2018-03-04T08:53:45.178Z,1.26
2018-03-04T08:54:48.857Z,1.35
2018-03-04T08:55:52.264Z,1.38
2018-03-04T08:56:55.563Z,1.44
2018-03-04T08:57:59.003Z,1.32
2018-03-04T08:59:02.431Z,1.35
2018-03-04T09:00:05.870Z,1.34
2018-03-04T09:01:09.312Z,1.31
2018-03-04T09:02:12.729Z,1.20
2018-03-04T09:03:16.031Z,1.21
2018-03-04T09:04:19.316Z,1.22
2018-03-04T09:05:22.642Z,1.22
2018-03-04T09:06:26.026Z,1.29
2018-03-04T09:07:30.058Z,1.21
2018-03-04T09:08:33.459Z,1.27
2018-03-04T09:09:36.783Z,1.31
2018-03-04T09:10:40.092Z,1.33
2018-03-04T09:11:43.388Z,1.24
2018-03-04T09:12:46.722Z,1.26
2018-03-04T09:13:50.277Z,1.30
2018-03-04T09:14:53.574Z,1.34
2018-03-04T09:15:56.884Z,1.36
2018-03-04T09:17:00.160Z,1.48
2018-03-04T09:18:04.131Z,1.57
2018-03-04T09:19:07.399Z,1.68
2018-03-04T09:20:11.028Z,1.66
2018-03-04T09:21:14.316Z,1.61
2018-03-04T09:22:17.599Z,1.62
2018-03-04T09:23:20.886Z,1.60
2018-03-04T09:24:24.253Z,1.65
2018-03-04T09:25:27.593Z,1.66
2018-03-04T09:26:31.232Z,1.66
2018-03-04T09:27:34.515Z,1.74
2018-03-04T09:28:37.954Z,1.81
2018-03-04T09:29:41.254Z,1.92
2018-03-04T09:30:44.571Z,2.03
2018-03-04T09:31:48.282Z,2.00
2018-03-04T09:32:51.994Z,1.90
2018-03-04T09:33:55.304Z,1.93
2018-03-04T09:34:58.748Z,1.97
2018-03-04T09:36:02.125Z,1.94
2018-03-04T09:37:05.404Z,1.87
2018-03-04T09:38:08.681Z,1.88
2018-03-04T09:39:12.237Z,1.91
2018-03-04T09:40:15.649Z,1.89
2018-03-04T09:41:19.059Z,2.01
2018-03-04T09:42:22.355Z,2.09
2018-03-04T09:43:25.849Z,2.11
2018-03-04T09:44:29.203Z,2.16
2018-03-04T09:45:32.825Z,2.17
2018-03-04T09:46:36.039Z,2.25
2018-03-04T09:47:39.761Z,2.36
2018-03-04T09:48:43.004Z,2.48
2018-03-04T09:49:46.325Z,2.63
2018-03-04T09:50:49.627Z,2.64
2018-03-04T09:51:53.298Z,2.68
2018-03-04T09:52:56.633Z,2.68
2018-03-04T09:53:59.878Z,2.52
2018-03-04T09:55:03.540Z,2.43
2018-03-04T09:56:06.791Z,2.46
2018-03-04T09:57:10.058Z,2.49
2018-03-04T09:58:13.474Z,2.53
2018-03-04T09:59:16.838Z,2.50
2018-03-04T10:00:20.012Z,2.58
2018-03-04T10:01:23.579Z,2.72
2018-03-04T10:02:26.845Z,2.75
2018-03-04T10:03:30.966Z,2.79
2018-03-04T10:04:34.506Z,2.80
2018-03-04T10:05:38.951Z,2.75
2018-03-04T10:06:42.254Z,2.76
2018-03-04T10:07:45.461Z,2.79
2018-03-04T10:08:48.901Z,2.81
2018-03-04T10:09:52.199Z,2.76
2018-03-04T10:10:55.510Z,2.77
2018-03-04T10:11:58.908Z,3.02
2018-03-04T10:13:02.353Z,3.29
2018-03-04T10:14:05.651Z,3.41
2018-03-04T10:15:08.927Z,3.46
2018-03-04T10:16:13.023Z,3.25
2018-03-04T10:17:16.272Z,3.16
2018-03-04T10:18:19.847Z,3.31
2018-03-04T10:19:23.155Z,3.41
2018-03-04T10:20:26.499Z,3.45
2018-03-04T10:21:29.682Z,3.63
2018-03-04T10:22:33.356Z,4.00
2018-03-04T10:23:36.678Z,4.02
2018-03-04T10:24:40.038Z,4.26
2018-03-04T10:25:43.347Z,4.13
2018-03-04T10:26:46.544Z,4.36
2018-03-04T10:27:49.881Z,4.77
2018-03-04T10:28:53.672Z,4.16
2018-03-04T10:29:56.902Z,4.02
2018-03-04T10:31:00.071Z,4.25
2018-03-04T10:32:03.438Z,4.36
2018-03-04T10:33:06.726Z,4.34
2018-03-04T10:34:09.893Z,5.14
2018-03-04T10:35:13.492Z,6.16
2018-03-04T10:36:16.801Z,6.05
2018-03-04T10:37:20.015Z,6.08
2018-03-04T10:38:23.237Z,6.57
2018-03-04T10:39:26.568Z,6.62
2018-03-04T10:40:29.823Z,6.73
2018-03-04T10:41:33.515Z,6.74
2018-03-04T10:42:36.721Z,6.87
2018-03-04T10:43:39.931Z,7.15
2018-03-04T10:44:43.144Z,7.58
2018-03-04T10:45:46.413Z,7.78
2018-03-04T10:46:50.066Z,7.50
2018-03-04T10:47:53.698Z,7.19
2018-03-04T10:48:56.861Z,7.66
2018-03-04T10:49:59.962Z,8.06
2018-03-04T10:51:03.114Z,7.40
2018-03-04T10:52:06.321Z,7.62
2018-03-04T10:53:09.540Z,7.13
2018-03-04T10:54:14.090Z,6.88
2018-03-04T10:55:17.342Z,6.10
2018-03-04T10:56:20.604Z,6.01
2018-03-04T10:57:23.646Z,5.96
2018-03-04T10:58:26.907Z,5.92
2018-03-04T10:59:30.220Z,6.15
2018-03-04T11:00:36.698Z,5.86
2018-03-04T11:01:45.548Z,5.90
2018-03-04T11:02:50.868Z,6.72
2018-03-04T11:03:54.155Z,6.50
2018-03-04T11:04:57.781Z,6.60
2018-03-04T11:06:01.309Z,6.99
2018-03-04T11:07:04.940Z,7.82
2018-03-04T11:08:08.337Z,7.54
2018-03-04T11:09:11.639Z,7.34
2018-03-04T11:10:15.014Z,7.11
2018-03-04T11:11:18.244Z,7.20
2018-03-04T11:12:21.525Z,7.15
2018-03-04T11:13:25.270Z,7.26
2018-03-04T11:14:28.536Z,7.63
2018-03-04T11:15:31.891Z,7.28
2018-03-04T11:16:35.126Z,7.03
2018-03-04T11:17:38.330Z,7.17
2018-03-04T11:18:41.531Z,7.76
2018-03-04T11:19:45.124Z,7.62
2018-03-04T11:20:48.411Z,7.32
2018-03-04T11:21:51.675Z,7.11
2018-03-04T11:22:54.861Z,6.60
2018-03-04T11:23:58.150Z,6.54
2018-03-04T11:25:01.467Z,6.30
2018-03-04T11:26:05.273Z,6.41
2018-03-04T11:27:08.618Z,6.85
2018-03-04T11:28:11.899Z,6.74
2018-03-04T11:29:15.129Z,7.22
2018-03-04T11:30:18.560Z,6.96
2018-03-04T11:31:22.054Z,7.02
2018-03-04T11:32:25.702Z,6.91
2018-03-04T11:33:29.095Z,7.28
2018-03-04T11:34:33.684Z,7.60
2018-03-04T11:35:38.301Z,7.29
2018-03-04T11:36:42.800Z,7.71
2018-03-04T11:37:46.148Z,7.20
2018-03-04T11:38:51.186Z,7.20
2018-03-04T11:39:55.063Z,7.49
2018-03-04T11:40:59.082Z,7.73
2018-03-04T11:42:03.464Z,7.56
2018-03-04T11:43:07.583Z,7.51
2018-03-04T11:44:11.898Z,7.96
2018-03-04T11:45:16.921Z,7.86
2018-03-04T11:46:21.975Z,7.91
2018-03-04T11:47:26.502Z,8.04
2018-03-04T11:48:29.756Z,7.59
2018-03-04T11:49:33.111Z,7.46
2018-03-04T11:50:36.793Z,7.56
2018-03-04T11:51:40.172Z,7.50
2018-03-04T11:52:43.566Z,7.56
2018-03-04T11:53:46.880Z,7.01
2018-03-04T11:54:50.256Z,7.46
2018-03-04T11:55:53.717Z,7.45
2018-03-04T11:56:57.424Z,7.33
2018-03-04T11:58:01.083Z,7.57
2018-03-04T11:59:04.482Z,7.45
2018-03-04T12:00:08.004Z,7.43
2018-03-04T12:01:11.312Z,7.73
2018-03-04T12:02:14.608Z,7.44
2018-03-04T12:03:18.416Z,7.87
2018-03-04T12:04:21.537Z,7.38
2018-03-04T12:05:24.882Z,7.24
2018-03-04T12:06:28.685Z,6.76
2018-03-04T12:07:32.128Z,6.97
2018-03-04T12:08:35.546Z,7.03
2018-03-04T12:09:39.784Z,6.64
2018-03-04T12:10:43.166Z,6.60
2018-03-04T12:11:46.388Z,6.75
2018-03-04T12:12:49.719Z,6.65
2018-03-04T12:13:53.147Z,7.13
2018-03-04T12:14:56.633Z,6.94
2018-03-04T12:16:00.942Z,6.68
2018-03-04T12:17:04.129Z,6.64
2018-03-04T12:18:07.300Z,6.43
2018-03-04T12:19:10.872Z,6.45
2018-03-04T12:20:15.065Z,6.73
2018-03-04T12:21:18.498Z,6.78
2018-03-04T12:22:22.207Z,6.43
2018-03-04T12:23:25.668Z,6.21
2018-03-04T12:24:29.054Z,6.69
2018-03-04T12:25:33.428Z,6.91
2018-03-04T12:26:36.844Z,7.25
2018-03-04T12:27:40.163Z,6.97
2018-03-04T12:28:43.837Z,7.03
2018-03-04T12:29:47.092Z,7.66
2018-03-04T12:30:50.894Z,7.79
2018-03-04T12:31:55.030Z,7.01
2018-03-04T12:32:58.438Z,6.54
2018-03-04T12:34:03.024Z,6.70
2018-03-04T12:35:06.908Z,6.92
2018-03-04T12:36:10.469Z,6.89
2018-03-04T12:37:14.224Z,6.53
2018-03-04T12:38:17.505Z,6.59
2018-03-04T12:39:22.352Z,6.69
2018-03-04T12:40:25.984Z,6.05
2018-03-04T12:41:29.987Z,5.87
2018-03-04T12:42:33.408Z,6.26
2018-03-04T12:43:36.786Z,7.02
2018-03-04T12:44:40.228Z,7.37
2018-03-04T12:45:43.695Z,7.53
2018-03-04T12:46:51.838Z,7.86
2018-03-04T12:47:56.155Z,7.83
2018-03-04T12:48:59.876Z,7.91
2018-03-04T12:50:04.966Z,7.93
2018-03-04T12:51:08.525Z,7.13
2018-03-04T12:52:11.804Z,7.02
2018-03-04T12:53:15.024Z,7.01
2018-03-04T12:54:18.850Z,7.17
2018-03-04T12:55:22.423Z,6.94
2018-03-04T12:56:26.662Z,7.28
2018-03-04T12:57:30.792Z,7.11
2018-03-04T12:58:35.885Z,6.93
2018-03-04T12:59:41.132Z,7.05
2018-03-04T13:00:45.289Z,6.84
2018-03-04T13:01:48.724Z,6.30
2018-03-04T13:02:52.564Z,5.92
2018-03-04T13:03:56.870Z,6.38
2018-03-04T13:05:01.361Z,6.39
2018-03-04T13:06:04.661Z,6.53
2018-03-04T13:07:08.581Z,6.49
2018-03-04T13:08:12.142Z,6.53
2018-03-04T13:09:15.617Z,6.49
2018-03-04T13:10:19.044Z,6.19
2018-03-04T13:11:22.703Z,5.79
2018-03-04T13:12:26.086Z,5.82
2018-03-04T13:13:29.818Z,5.51
2018-03-04T13:14:33.274Z,5.99
2018-03-04T13:15:36.588Z,6.20
2018-03-04T13:16:40.115Z,6.99
2018-03-04T13:17:43.819Z,6.83
2018-03-04T13:18:47.151Z,6.21
2018-03-04T13:19:51.960Z,6.26
2018-03-04T13:20:55.529Z,6.38
2018-03-04T13:21:58.909Z,6.93
2018-03-04T13:23:02.308Z,7.55
2018-03-04T13:24:05.682Z,6.95
2018-03-04T13:25:09.073Z,6.87
2018-03-04T13:26:12.749Z,7.43
2018-03-04T13:27:16.185Z,6.89
2018-03-04T13:28:19.490Z,7.14
2018-03-04T13:29:23.391Z,7.46
2018-03-04T13:30:26.913Z,7.17
2018-03-04T13:31:30.875Z,7.91
2018-03-04T13:32:35.205Z,7.95
2018-03-04T13:33:39.261Z,7.95
2018-03-04T13:34:42.684Z,8.03
2018-03-04T13:35:46.036Z,8.17
2018-03-04T13:36:49.429Z,8.40
2018-03-04T13:37:52.719Z,8.96
2018-03-04T13:38:56.320Z,9.01
2018-03-04T13:39:59.508Z,9.21
2018-03-04T13:41:03.039Z,9.26
2018-03-04T13:42:06.439Z,9.05
2018-03-04T13:43:09.700Z,8.92
2018-03-04T13:44:13.133Z,8.71
2018-03-04T13:45:16.961Z,8.41
2018-03-04T13:46:20.690Z,8.66
2018-03-04T13:47:24.102Z,9.11
2018-03-04T13:48:28.361Z,9.04
2018-03-04T13:49:31.648Z,8.59
2018-03-04T13:50:34.940Z,8.58
2018-03-04T13:51:39.353Z,8.65
2018-03-04T13:52:42.728Z,8.59
2018-03-04T13:53:46.931Z,8.36
2018-03-04T13:54:50.995Z,8.16
2018-03-04T13:55:55.255Z,8.28
2018-03-04T13:56:59.836Z,8.39
2018-03-04T13:58:04.267Z,7.98
2018-03-04T13:59:07.582Z,8.20
2018-03-04T14:00:10.906Z,7.76